Time;durP1;ratioP1;P1;durP2;ratioP2;P2;SDS_P1;SDS_P2;PMS_P1;PMS_P2;Temp;Humidity;BMP_temperature;BMP_pressure;BME280_temperature;BME280_humidity;BME280_pressure;Samples;Min_cycle;Max_cycle;Signal;HPM_P1;HPM_P2
2022/05/24 00:00:02;;;;;;;11.55;3.58;;;;;;;;;;5005967;28;20057;-71
2022/05/24 00:02:28;;;;;;;11.27;5.72;;;;;;;;;;4981158;28;20103;-70
2022/05/24 00:04:55;;;;;;;8.80;4.85;;;;;;;;;;4990707;28;20069;-68
2022/05/24 00:07:23;;;;;;;10.95;5.97;;;;;;;;;;4997706;28;20054;-71
2022/05/24 00:09:50;;;;;;;7.70;3.42;;;;;;;;;;4990037;28;20054;-72
2022/05/24 00:12:16;;;;;;;9.77;4.45;;;;;;;;;;5007347;28;20061;-68
2022/05/24 00:17:28;;;;;;;10.70;5.00;;;;;;;;;;4989730;28;20046;-67
2022/05/24 00:19:55;;;;;;;15.02;5.53;;;;;;;;;;4982917;28;20054;-71
2022/05/24 00:22:23;;;;;;;14.38;7.60;;;;;;;;;;4991139;28;20065;-69
2022/05/24 00:24:50;;;;;;;14.00;6.07;;;;;;;;;;4982963;28;20112;-73
2022/05/24 00:27:18;;;;;;;16.58;8.18;;;;;;;;;;4991644;28;20054;-75
2022/05/24 00:29:44;;;;;;;13.52;6.35;;;;;;;;;;4967339;28;20119;-71
2022/05/24 00:32:11;;;;;;;12.60;5.55;;;;;;;;;;4988895;28;20050;-69
2022/05/24 00:34:37;;;;;;;16.98;8.10;;;;;;;;;;4989720;28;20061;-68
2022/05/24 00:37:04;;;;;;;10.82;5.10;;;;;;;;;;4980305;28;20050;-69
2022/05/24 00:39:32;;;;;;;18.45;9.40;;;;;;;;;;4989514;28;20321;-72
2022/05/24 00:42:02;;;;;;;15.48;8.80;;;;;;;;;;4979366;28;20064;-67
2022/05/24 00:44:30;;;;;;;18.40;8.73;;;;;;;;;;4988979;28;20061;-68
2022/05/24 00:47:00;;;;;;;14.63;7.22;;;;;;;;;;4980491;28;20082;-69
2022/05/24 00:49:28;;;;;;;12.32;6.65;;;;;;;;;;4990368;28;20045;-67
2022/05/24 00:51:55;;;;;;;;;;;;;;;;;;4986132;28;20049;-68
2022/05/24 00:54:21;;;;;;;12.00;6.97;;;;;;;;;;4983409;28;19925;-68
2022/05/24 00:56:52;;;;;;;17.05;7.55;;;;;;;;;;4990207;28;20053;-70
2022/05/24 00:59:23;;;;;;;18.13;8.88;;;;;;;;;;4980607;28;20061;-67
2022/05/24 01:01:49;;;;;;;10.98;6.65;;;;;;;;;;4984695;28;20050;-70
2022/05/24 01:04:19;;;;;;;12.63;6.13;;;;;;;;;;4979347;28;20050;-68
2022/05/24 01:06:47;;;;;;;12.73;6.75;;;;;;;;;;5004493;28;20053;-69
2022/05/24 01:09:21;;;;;;;15.30;6.43;;;;;;;;;;4977764;28;20046;-73
2022/05/24 01:11:50;;;;;;;16.85;7.65;;;;;;;;;;4988995;28;20054;-72
2022/05/24 01:14:19;;;;;;;13.55;5.43;;;;;;;;;;4986695;28;20077;-71
2022/05/24 01:16:47;;;;;;;15.57;5.95;;;;;;;;;;4984168;28;20058;-70
2022/05/24 01:19:20;;;;;;;14.43;5.47;;;;;;;;;;4988493;28;20067;-71
2022/05/24 01:21:48;;;;;;;11.18;5.75;;;;;;;;;;4979654;28;20049;-69
2022/05/24 01:24:17;;;;;;;14.20;5.18;;;;;;;;;;5005838;28;20064;-72
2022/05/24 01:26:49;;;;;;;13.52;5.25;;;;;;;;;;4995551;28;20065;-72
2022/05/24 01:29:16;;;;;;;10.43;5.45;;;;;;;;;;4972984;28;20049;-71
2022/05/24 01:37:14;;;;;;;15.45;5.25;;;;;;;;;;4979664;28;20159;-69
2022/05/24 01:39:42;;;;;;;16.92;6.05;;;;;;;;;;4988989;28;20115;-71
2022/05/24 01:42:11;;;;;;;10.73;5.43;;;;;;;;;;4989337;28;20053;-72
2022/05/24 01:44:37;;;;;;;;;;;;;;;;;;4997421;28;20058;-68
2022/05/24 01:47:04;;;;;;;12.93;6.57;;;;;;;;;;4987813;28;19932;-67
2022/05/24 01:49:33;;;;;;;16.05;7.82;;;;;;;;;;4979945;28;20054;-71
2022/05/24 01:52:01;;;;;;;9.18;4.60;;;;;;;;;;4990151;28;20054;-68
2022/05/24 01:54:28;;;;;;;13.55;7.25;;;;;;;;;;4979723;28;20138;-71
2022/05/24 01:56:59;;;;;;;16.23;7.87;;;;;;;;;;4989096;28;20178;-71
2022/05/24 01:59:28;;;;;;;17.50;7.80;;;;;;;;;;4982873;28;20116;-68
2022/05/24 02:01:55;;;;;;;11.02;5.47;;;;;;;;;;4985506;28;20160;-67
2022/05/24 02:04:23;;;;;;;13.55;6.63;;;;;;;;;;5000227;28;20217;-71
2022/05/24 02:07:00;;;;;;;18.10;8.38;;;;;;;;;;4986467;28;20053;-69
2022/05/24 02:09:27;;;;;;;20.15;6.25;;;;;;;;;;4989905;28;20081;-68
2022/05/24 02:11:55;;;;;;;17.50;7.15;;;;;;;;;;4985316;28;20073;-71
2022/05/24 02:14:23;;;;;;;14.13;5.78;;;;;;;;;;4990475;28;20054;-69
2022/05/24 02:16:56;;;;;;;13.30;6.75;;;;;;;;;;4985602;28;20100;-70
2022/05/24 02:19:23;;;;;;;17.33;7.50;;;;;;;;;;5007365;28;20057;-68
2022/05/24 02:21:54;;;;;;;11.97;5.80;;;;;;;;;;5001695;28;20054;-68
2022/05/24 02:24:21;;;;;;;16.13;6.13;;;;;;;;;;4991040;28;20114;-70
2022/05/24 02:26:50;;;;;;;10.27;4.90;;;;;;;;;;4988882;28;20062;-72
2022/05/24 02:29:17;;;;;;;8.50;4.38;;;;;;;;;;4987510;28;20058;-69
2022/05/24 02:31:44;;;;;;;12.93;5.80;;;;;;;;;;4991467;28;20057;-69
2022/05/24 02:34:12;;;;;;;12.00;4.82;;;;;;;;;;4984746;28;20131;-71
2022/05/24 02:36:39;;;;;;;13.60;4.88;;;;;;;;;;4988458;28;20049;-68
2022/05/24 02:39:06;;;;;;;10.80;5.07;;;;;;;;;;4984253;28;20064;-68
2022/05/24 02:41:32;;;;;;;11.55;4.55;;;;;;;;;;4990438;28;20058;-70
2022/05/24 02:44:00;;;;;;;11.80;4.60;;;;;;;;;;5001840;28;20054;-68
2022/05/24 02:46:30;;;;;;;10.47;4.23;;;;;;;;;;4989644;28;20088;-71
2022/05/24 02:48:56;;;;;;;9.00;4.03;;;;;;;;;;4990441;28;20057;-68
2022/05/24 02:51:26;;;;;;;10.30;3.97;;;;;;;;;;4984637;28;20077;-70
2022/05/24 02:53:52;;;;;;;9.25;3.75;;;;;;;;;;4991188;28;20066;-71
2022/05/24 02:56:20;;;;;;;10.40;3.47;;;;;;;;;;4986417;28;20077;-72
2022/05/24 02:58:47;;;;;;;9.50;3.90;;;;;;;;;;4992774;28;20058;-70
2022/05/24 03:01:15;;;;;;;11.00;3.63;;;;;;;;;;4988659;28;20073;-73
2022/05/24 03:03:42;;;;;;;8.82;3.83;;;;;;;;;;4996020;28;20049;-71
2022/05/24 03:06:09;;;;;;;11.48;4.00;;;;;;;;;;5008517;28;20054;-72
2022/05/24 03:11:21;;;;;;;12.35;4.15;;;;;;;;;;4994332;28;20046;-71
2022/05/24 03:16:32;;;;;;;11.45;3.47;;;;;;;;;;4993809;28;20108;-68
2022/05/24 03:18:59;;;;;;;16.02;4.13;;;;;;;;;;4988946;28;20124;-68
2022/05/24 03:21:25;;;;;;;10.13;3.60;;;;;;;;;;4994439;28;20106;-67
2022/05/24 03:23:53;;;;;;;11.20;3.67;;;;;;;;;;4981326;28;20121;-67
2022/05/24 03:26:21;;;;;;;7.93;3.53;;;;;;;;;;4974031;28;20054;-68
2022/05/24 03:28:48;;;;;;;8.43;3.33;;;;;;;;;;4970546;28;20053;-66
2022/05/24 03:31:15;;;;;;;5.78;2.90;;;;;;;;;;4991179;28;20050;-68
2022/05/24 03:33:42;;;;;;;9.68;2.90;;;;;;;;;;4989056;28;20090;-69
2022/05/24 03:36:09;;;;;;;8.93;3.60;;;;;;;;;;4996371;28;20092;-67
2022/05/24 03:38:38;;;;;;;9.77;3.05;;;;;;;;;;5007093;28;20049;-69
2022/05/24 03:41:06;;;;;;;11.13;3.45;;;;;;;;;;5015257;28;20088;-67
2022/05/24 03:43:33;;;;;;;8.57;3.00;;;;;;;;;;5013651;28;20088;-70
2022/05/24 03:46:01;;;;;;;9.05;3.15;;;;;;;;;;4980052;28;20160;-67
2022/05/24 03:48:28;;;;;;;9.32;2.90;;;;;;;;;;4993675;28;20109;-67
2022/05/24 03:50:55;;;;;;;5.13;2.22;;;;;;;;;;4988430;28;20065;-66
2022/05/24 03:53:21;;;;;;;9.07;3.08;;;;;;;;;;5009722;28;20053;-67
2022/05/24 03:55:49;;;;;;;9.05;3.00;;;;;;;;;;4989197;28;20062;-67
2022/05/24 03:58:17;;;;;;;6.78;2.50;;;;;;;;;;4993165;28;20053;-68
2022/05/24 04:00:45;;;;;;;6.15;2.45;;;;;;;;;;4983763;28;20112;-70
2022/05/24 04:03:12;;;;;;;5.88;2.33;;;;;;;;;;4994092;28;20052;-69
2022/05/24 04:05:40;;;;;;;8.85;3.03;;;;;;;;;;5013265;28;20056;-70
2022/05/24 04:08:07;;;;;;;7.25;2.58;;;;;;;;;;5012705;28;20053;-66
2022/05/24 04:10:34;;;;;;;10.60;2.78;;;;;;;;;;5000004;28;20068;-69
2022/05/24 04:13:01;;;;;;;7.57;2.75;;;;;;;;;;5010324;28;20065;-67
2022/05/24 04:15:29;;;;;;;6.50;2.40;;;;;;;;;;4987463;28;20137;-68
2022/05/24 04:17:55;;;;;;;7.75;2.88;;;;;;;;;;5009894;28;20057;-67
2022/05/24 04:20:23;;;;;;;10.00;3.30;;;;;;;;;;4985357;28;20058;-67
2022/05/24 04:22:51;;;;;;;6.38;2.53;;;;;;;;;;4972955;28;20050;-66
2022/05/24 04:25:18;;;;;;;10.35;3.65;;;;;;;;;;4970146;28;20058;-67
2022/05/24 04:27:45;;;;;;;5.35;2.25;;;;;;;;;;4988504;28;20058;-69
2022/05/24 04:30:13;;;;;;;5.70;2.72;;;;;;;;;;4973324;28;20051;-67
2022/05/24 04:32:41;;;;;;;8.40;3.50;;;;;;;;;;4985596;28;20057;-69
2022/05/24 04:35:08;;;;;;;7.38;3.10;;;;;;;;;;4993487;28;20081;-68
2022/05/24 04:37:35;;;;;;;8.27;3.17;;;;;;;;;;4973245;28;20146;-68
2022/05/24 04:40:02;;;;;;;11.82;3.22;;;;;;;;;;4990795;28;20069;-70
2022/05/24 04:42:27;;;;;;;9.20;3.50;;;;;;;;;;4981166;28;20077;-71
2022/05/24 04:44:56;;;;;;;9.90;3.35;;;;;;;;;;4992868;28;20120;-71
2022/05/24 04:47:23;;;;;;;12.32;4.50;;;;;;;;;;4979584;28;20090;-68
2022/05/24 04:49:54;;;;;;;8.57;3.58;;;;;;;;;;5006041;28;20057;-71
2022/05/24 04:52:21;;;;;;;7.15;2.85;;;;;;;;;;4982726;28;20171;-70
2022/05/24 04:54:48;;;;;;;11.70;3.40;;;;;;;;;;4989398;28;20141;-72
2022/05/24 04:57:14;;;;;;;7.57;2.67;;;;;;;;;;4982315;28;20108;-72
2022/05/24 04:59:41;;;;;;;10.93;3.35;;;;;;;;;;4990693;28;20054;-70
2022/05/24 05:02:08;;;;;;;7.15;2.97;;;;;;;;;;4984738;28;20066;-70
2022/05/24 05:04:35;;;;;;;9.05;2.97;;;;;;;;;;4989891;28;20054;-70
2022/05/24 05:07:05;;;;;;;7.47;3.30;;;;;;;;;;4984547;28;20062;-71
2022/05/24 05:09:38;;;;;;;7.78;3.25;;;;;;;;;;4990361;28;20092;-71
2022/05/24 05:12:06;;;;;;;10.00;3.72;;;;;;;;;;4990983;28;20054;-70
2022/05/24 05:14:33;;;;;;;13.68;3.70;;;;;;;;;;4988771;28;20058;-68
2022/05/24 05:17:00;;;;;;;8.85;3.95;;;;;;;;;;4990950;28;20046;-70
2022/05/24 05:19:27;;;;;;;9.63;3.63;;;;;;;;;;4980954;28;20046;-71
2022/05/24 05:21:54;;;;;;;12.10;4.03;;;;;;;;;;4988849;28;20066;-70
2022/05/24 05:24:22;;;;;;;8.85;3.70;;;;;;;;;;4981611;28;20056;-70
2022/05/24 05:26:49;;;;;;;7.82;3.70;;;;;;;;;;4989932;28;20081;-70
2022/05/24 05:29:15;;;;;;;7.90;3.13;;;;;;;;;;4983078;28;20045;-68
2022/05/24 05:31:41;;;;;;;4.80;2.65;;;;;;;;;;5004169;28;20057;-71
2022/05/24 05:34:08;;;;;;;6.43;3.08;;;;;;;;;;4998365;28;20062;-71
2022/05/24 05:36:35;;;;;;;9.38;4.18;;;;;;;;;;5004869;28;20081;-68
2022/05/24 05:39:02;;;;;;;8.45;3.67;;;;;;;;;;4983211;28;20042;-71
2022/05/24 05:41:31;;;;;;;7.85;3.65;;;;;;;;;;4988956;28;20049;-71
2022/05/24 05:43:58;;;;;;;9.88;3.10;;;;;;;;;;4981851;28;20050;-69
2022/05/24 05:46:24;;;;;;;10.13;3.80;;;;;;;;;;4985140;28;20053;-72
2022/05/24 05:48:51;;;;;;;7.75;3.90;;;;;;;;;;4985305;28;20093;-71
2022/05/24 05:51:18;;;;;;;9.38;3.80;;;;;;;;;;4991225;28;20074;-68
2022/05/24 05:53:45;;;;;;;8.73;3.60;;;;;;;;;;5003910;28;20061;-70
2022/05/24 05:56:14;;;;;;;5.90;3.13;;;;;;;;;;4989122;28;20087;-70
2022/05/24 05:58:44;;;;;;;8.10;3.60;;;;;;;;;;4991215;28;20058;-71
2022/05/24 06:01:15;;;;;;;11.02;3.65;;;;;;;;;;4985592;28;20045;-72
2022/05/24 06:03:42;;;;;;;9.48;3.60;;;;;;;;;;4987788;28;20149;-70
2022/05/24 06:06:11;;;;;;;11.15;3.20;;;;;;;;;;4980167;28;20113;-70
2022/05/24 06:08:37;;;;;;;8.85;3.55;;;;;;;;;;4987979;28;20050;-69
2022/05/24 06:11:06;;;;;;;7.28;3.25;;;;;;;;;;4978646;28;20117;-71
2022/05/24 06:13:33;;;;;;;10.50;4.20;;;;;;;;;;5006604;28;20077;-67
2022/05/24 06:16:01;;;;;;;8.30;3.95;;;;;;;;;;4978705;28;20061;-69
2022/05/24 06:18:28;;;;;;;10.30;3.88;;;;;;;;;;4999862;28;20077;-69
2022/05/24 06:20:55;;;;;;;13.02;3.58;;;;;;;;;;4981007;28;20054;-71
2022/05/24 06:23:22;;;;;;;6.03;2.95;;;;;;;;;;5001315;28;20057;-70
2022/05/24 06:25:49;;;;;;;13.40;3.83;;;;;;;;;;4988283;28;20057;-68
2022/05/24 06:28:15;;;;;;;7.65;3.63;;;;;;;;;;4978320;28;20096;-69
2022/05/24 06:30:42;;;;;;;12.50;3.72;;;;;;;;;;4988077;28;20049;-69
2022/05/24 06:33:11;;;;;;;11.88;4.07;;;;;;;;;;4978408;28;20042;-68
2022/05/24 06:35:40;;;;;;;6.60;3.60;;;;;;;;;;4987653;28;20055;-69
2022/05/24 06:38:07;;;;;;;9.07;4.32;;;;;;;;;;4978052;28;20074;-69
2022/05/24 06:40:33;;;;;;;7.85;3.55;;;;;;;;;;4987141;28;20057;-68
2022/05/24 06:43:00;;;;;;;12.18;4.43;;;;;;;;;;5003591;28;20080;-70
2022/05/24 06:45:27;;;;;;;8.00;4.10;;;;;;;;;;4981217;28;20081;-68
2022/05/24 06:47:54;;;;;;;8.02;4.10;;;;;;;;;;4987784;28;20057;-70
2022/05/24 06:50:22;;;;;;;11.02;4.22;;;;;;;;;;4976510;28;20116;-70
2022/05/24 06:52:54;;;;;;;6.65;2.95;;;;;;;;;;4987498;28;20069;-69
2022/05/24 06:55:21;;;;;;;9.55;3.80;;;;;;;;;;4977574;28;20159;-68
2022/05/24 06:57:48;;;;;;;11.07;4.28;;;;;;;;;;4985542;28;20085;-69
2022/05/24 07:03:00;;;;;;;11.95;4.03;;;;;;;;;;4944642;28;20064;-69
2022/05/24 07:05:29;;;;;;;10.25;3.78;;;;;;;;;;4985100;28;20054;-68
2022/05/24 07:07:56;;;;;;;8.00;3.33;;;;;;;;;;4979322;28;20049;-68
2022/05/24 07:10:23;;;;;;;7.78;3.38;;;;;;;;;;4986677;28;20058;-70
2022/05/24 07:12:58;;;;;;;8.63;3.45;;;;;;;;;;4992968;28;20065;-69
2022/05/24 07:15:25;;;;;;;9.77;3.30;;;;;;;;;;4986925;28;20054;-70
2022/05/24 07:17:51;;;;;;;6.00;2.92;;;;;;;;;;4976250;28;20062;-69
2022/05/24 07:20:18;;;;;;;7.40;2.85;;;;;;;;;;4988115;28;20076;-70
2022/05/24 07:22:48;;;;;;;7.05;3.03;;;;;;;;;;4982854;28;20053;-70
2022/05/24 07:25:14;;;;;;;5.90;2.60;;;;;;;;;;4989465;28;20056;-71
2022/05/24 07:27:46;;;;;;;5.65;2.88;;;;;;;;;;5000601;28;20053;-70
2022/05/24 07:30:13;;;;;;;7.80;2.83;;;;;;;;;;4989093;28;20050;-69
2022/05/24 07:32:39;;;;;;;5.28;2.35;;;;;;;;;;4986800;28;20058;-69
2022/05/24 07:35:07;;;;;;;6.45;2.40;;;;;;;;;;5000417;28;20054;-70
2022/05/24 07:37:34;;;;;;;4.63;2.20;;;;;;;;;;4987727;28;20097;-69
2022/05/24 07:45:50;;;;;;;7.82;2.63;;;;;;;;;;5002681;28;20053;-68
2022/05/24 07:48:18;;;;;;;7.68;2.33;;;;;;;;;;4981523;28;20144;-70
2022/05/24 07:50:45;;;;;;;4.88;2.30;;;;;;;;;;4989888;28;20105;-69
2022/05/24 07:53:12;;;;;;;5.05;2.30;;;;;;;;;;5004930;28;20112;-69
2022/05/24 07:55:41;;;;;;;7.70;2.35;;;;;;;;;;4984367;28;20081;-69
2022/05/24 07:58:08;;;;;;;6.72;2.50;;;;;;;;;;4990121;28;20085;-69
2022/05/24 08:00:35;;;;;;;6.85;2.38;;;;;;;;;;4997299;28;20058;-69
2022/05/24 08:03:04;;;;;;;6.93;2.08;;;;;;;;;;5005286;28;20053;-69
2022/05/24 08:05:31;;;;;;;5.55;2.38;;;;;;;;;;4977049;28;20131;-68
2022/05/24 08:07:57;;;;;;;6.82;2.08;;;;;;;;;;5006205;28;20058;-70
2022/05/24 08:10:24;;;;;;;6.22;2.50;;;;;;;;;;4980460;28;20054;-71
2022/05/24 08:12:52;;;;;;;4.32;2.13;;;;;;;;;;4989199;28;20049;-71
2022/05/24 08:15:19;;;;;;;4.70;1.98;;;;;;;;;;4980157;28;20145;-70
2022/05/24 08:17:46;;;;;;;7.40;1.90;;;;;;;;;;5006652;28;20090;-71
2022/05/24 08:20:13;;;;;;;8.18;2.30;;;;;;;;;;4990483;28;20061;-70
2022/05/24 08:22:40;;;;;;;6.88;2.25;;;;;;;;;;4979836;28;20116;-70
2022/05/24 08:25:09;;;;;;;6.10;2.20;;;;;;;;;;4991088;28;20053;-68
2022/05/24 08:27:36;;;;;;;4.55;1.77;;;;;;;;;;4981666;28;20046;-69
2022/05/24 08:30:06;;;;;;;9.77;1.98;;;;;;;;;;4989012;28;20050;-71
2022/05/24 08:32:34;;;;;;;8.43;1.88;;;;;;;;;;4979861;28;20190;-69
2022/05/24 08:35:01;;;;;;;4.80;1.63;;;;;;;;;;5006607;28;20190;-66
2022/05/24 08:37:29;;;;;;;4.38;1.40;;;;;;;;;;4983214;28;20064;-68
2022/05/24 08:39:58;;;;;;;4.78;1.55;;;;;;;;;;4987408;28;20060;-68
2022/05/24 08:42:27;;;;;;;3.33;1.40;;;;;;;;;;4988470;28;20073;-67
2022/05/24 08:50:27;;;;;;;7.85;1.65;;;;;;;;;;4995831;28;20054;-68
2022/05/24 08:52:56;;;;;;;5.78;1.70;;;;;;;;;;4989874;28;20065;-69
2022/05/24 08:55:23;;;;;;;2.72;1.50;;;;;;;;;;4970673;28;20065;-68
2022/05/24 08:57:51;;;;;;;2.72;1.38;;;;;;;;;;4990117;28;20054;-68
2022/05/24 09:00:19;;;;;;;4.63;1.57;;;;;;;;;;4997916;28;20058;-70
2022/05/24 09:02:48;;;;;;;3.85;1.55;;;;;;;;;;4993156;28;20324;-69
2022/05/24 09:05:18;;;;;;;4.47;1.50;;;;;;;;;;4992904;28;20069;-69
2022/05/24 09:07:48;;;;;;;3.20;1.20;;;;;;;;;;4985503;28;20145;-68
2022/05/24 09:10:17;;;;;;;4.35;1.33;;;;;;;;;;4989094;28;20058;-69
2022/05/24 09:12:52;;;;;;;2.60;1.17;;;;;;;;;;4978581;28;20069;-68
2022/05/24 09:15:26;;;;;;;4.93;1.52;;;;;;;;;;5004161;28;20077;-69
2022/05/24 09:18:05;;;;;;;4.65;1.10;;;;;;;;;;4979134;28;20065;-68
2022/05/24 09:20:34;;;;;;;3.28;1.40;;;;;;;;;;5005162;28;20049;-69
2022/05/24 09:23:03;;;;;;;3.72;1.50;;;;;;;;;;4994493;28;20061;-70
2022/05/24 09:25:29;;;;;;;4.15;1.65;;;;;;;;;;4989807;28;20055;-69
2022/05/24 09:27:56;;;;;;;6.05;2.08;;;;;;;;;;4979080;28;20094;-69
2022/05/24 09:30:25;;;;;;;5.07;2.17;;;;;;;;;;4988619;28;20050;-68
2022/05/24 09:32:51;;;;;;;4.63;1.95;;;;;;;;;;4986051;28;20050;-68
2022/05/24 09:35:27;;;;;;;2.30;1.30;;;;;;;;;;4997348;28;20073;-69
2022/05/24 09:38:13;;;;;;;3.40;1.40;;;;;;;;;;5002822;28;20042;-68
2022/05/24 09:40:51;;;;;;;3.72;1.20;;;;;;;;;;4980094;28;20058;-68
2022/05/24 09:43:20;;;;;;;2.35;1.40;;;;;;;;;;4987210;28;20097;-68
2022/05/24 09:45:52;;;;;;;2.45;1.30;;;;;;;;;;4978369;28;20160;-69
2022/05/24 09:48:22;;;;;;;2.90;1.27;;;;;;;;;;5002877;28;20049;-70
2022/05/24 09:50:52;;;;;;;6.97;1.30;;;;;;;;;;4979066;28;20063;-69
2022/05/24 09:53:19;;;;;;;5.13;1.40;;;;;;;;;;4989348;28;20068;-70
2022/05/24 09:55:47;;;;;;;5.65;1.27;;;;;;;;;;4980564;28;20070;-71
2022/05/24 09:58:19;;;;;;;6.35;1.50;;;;;;;;;;4987339;28;20056;-71
2022/05/24 10:00:51;;;;;;;2.33;1.27;;;;;;;;;;5005305;28;20046;-68
2022/05/24 10:03:22;;;;;;;3.05;1.50;;;;;;;;;;4989310;28;20058;-68
2022/05/24 10:05:56;;;;;;;1.73;1.13;;;;;;;;;;4988466;28;20136;-70
2022/05/24 10:08:23;;;;;;;2.25;1.13;;;;;;;;;;4977797;28;20060;-69
2022/05/24 10:10:56;;;;;;;1.77;1.08;;;;;;;;;;4986266;28;20065;-70
2022/05/24 10:13:27;;;;;;;4.80;1.10;;;;;;;;;;4976262;28;20081;-70
2022/05/24 10:15:59;;;;;;;1.83;0.88;;;;;;;;;;4989032;28;20065;-69
2022/05/24 10:18:33;;;;;;;2.78;1.05;;;;;;;;;;4978397;28;20061;-69
2022/05/24 10:21:07;;;;;;;3.13;1.38;;;;;;;;;;4973459;28;20052;-69
2022/05/24 10:23:41;;;;;;;1.80;1.02;;;;;;;;;;4963527;28;20054;-69
2022/05/24 10:26:13;;;;;;;2.92;1.20;;;;;;;;;;4965185;28;20070;-70
2022/05/24 10:28:45;;;;;;;5.28;1.40;;;;;;;;;;4969867;28;20050;-68
2022/05/24 10:31:17;;;;;;;2.45;1.25;;;;;;;;;;4976882;28;20073;-69
2022/05/24 10:39:34;;;;;;;2.47;1.17;;;;;;;;;;4968625;28;20080;-70
2022/05/24 10:42:11;;;;;;;6.38;1.13;;;;;;;;;;4988040;28;20056;-70
2022/05/24 10:44:40;;;;;;;2.42;1.35;;;;;;;;;;4968805;28;20066;-69
2022/05/24 10:47:07;;;;;;;2.38;1.13;;;;;;;;;;4958304;28;20061;-69
2022/05/24 10:49:39;;;;;;;1.17;0.63;;;;;;;;;;5001047;28;20062;-70
2022/05/24 10:52:12;;;;;;;1.75;0.80;;;;;;;;;;4958272;28;20058;-69
2022/05/24 10:54:44;;;;;;;2.00;0.70;;;;;;;;;;4969484;28;20093;-69
2022/05/24 10:57:15;;;;;;;1.48;0.70;;;;;;;;;;4965869;28;20052;-69
2022/05/24 10:59:45;;;;;;;1.35;0.70;;;;;;;;;;4980737;28;20132;-68
2022/05/24 11:02:19;;;;;;;1.67;0.82;;;;;;;;;;4968476;28;20058;-69
2022/05/24 11:04:49;;;;;;;1.23;0.70;;;;;;;;;;4959357;28;20051;-69
2022/05/24 11:07:18;;;;;;;4.60;0.90;;;;;;;;;;4969265;28;20050;-69
2022/05/24 11:09:54;;;;;;;1.45;0.70;;;;;;;;;;4958962;28;20073;-69
2022/05/24 11:12:23;;;;;;;1.45;0.70;;;;;;;;;;4970448;28;20058;-70
2022/05/24 11:14:51;;;;;;;1.20;0.50;;;;;;;;;;4960646;28;20054;-69
2022/05/24 11:17:20;;;;;;;6.75;0.77;;;;;;;;;;4968133;28;20109;-70
2022/05/24 11:19:49;;;;;;;1.52;0.70;;;;;;;;;;4980993;28;20057;-68
2022/05/24 11:22:20;;;;;;;1.67;0.55;;;;;;;;;;4996860;28;20050;-68
2022/05/24 11:24:51;;;;;;;3.53;0.80;;;;;;;;;;4972110;28;20054;-68
2022/05/24 11:27:29;;;;;;;1.85;0.73;;;;;;;;;;4978547;28;20077;-70
2022/05/24 11:29:57;;;;;;;1.05;0.75;;;;;;;;;;4977876;28;20156;-70
2022/05/24 11:32:32;;;;;;;1.25;0.60;;;;;;;;;;5007014;28;20054;-69
2022/05/24 11:35:01;;;;;;;6.40;1.05;;;;;;;;;;4990827;28;20057;-69
2022/05/24 11:37:30;;;;;;;6.60;1.00;;;;;;;;;;5004330;28;20112;-68
2022/05/24 11:40:18;;;;;;;6.13;0.82;;;;;;;;;;4987708;28;20049;-69
2022/05/24 11:42:47;;;;;;;1.77;0.77;;;;;;;;;;5007965;28;20058;-70
2022/05/24 11:45:33;;;;;;;5.97;1.55;;;;;;;;;;5007963;28;20045;-68
2022/05/24 11:48:00;;;;;;;4.63;1.48;;;;;;;;;;4990380;28;20133;-69
2022/05/24 11:50:39;;;;;;;4.78;2.22;;;;;;;;;;4991399;28;20057;-69
2022/05/24 11:53:05;;;;;;;;;;;;;;;;;;5005535;28;20081;-69
2022/05/24 11:55:40;;;;;;;3.92;0.98;;;;;;;;;;4991595;28;19925;-69
2022/05/24 11:58:21;;;;;;;0.95;0.77;;;;;;;;;;4984087;28;20121;-69
2022/05/24 12:00:56;;;;;;;1.17;0.95;;;;;;;;;;4990018;28;20052;-68
2022/05/24 12:09:11;;;;;;;2.30;0.95;;;;;;;;;;4987487;28;20054;-72
2022/05/24 12:11:37;;;;;;;;;;;;;;;;;;4986911;28;20057;-69
2022/05/24 12:14:14;;;;;;;5.28;0.90;;;;;;;;;;4989145;28;19930;-73
2022/05/24 12:16:45;;;;;;;3.35;0.93;;;;;;;;;;5001457;28;20058;-69
2022/05/24 12:19:13;;;;;;;3.13;0.90;;;;;;;;;;4990490;28;20058;-69
2022/05/24 12:21:57;;;;;;;3.65;0.77;;;;;;;;;;4989810;28;20094;-70
2022/05/24 12:24:35;;;;;;;2.15;0.88;;;;;;;;;;4981693;28;20049;-73
2022/05/24 12:27:12;;;;;;;4.40;0.70;;;;;;;;;;5007532;28;20046;-68
2022/05/24 12:29:41;;;;;;;1.58;0.60;;;;;;;;;;4989538;28;20053;-71
2022/05/24 12:32:08;;;;;;;1.67;0.70;;;;;;;;;;4991110;28;20061;-68
2022/05/24 12:34:35;;;;;;;3.03;0.60;;;;;;;;;;4982203;28;20054;-73
2022/05/24 12:37:16;;;;;;;2.47;0.88;;;;;;;;;;4990944;28;20054;-69
2022/05/24 12:40:03;;;;;;;4.97;1.25;;;;;;;;;;4981561;28;20056;-71
2022/05/24 12:42:29;;;;;;;3.03;0.90;;;;;;;;;;4989308;28;20128;-71
2022/05/24 12:45:00;;;;;;;1.33;0.73;;;;;;;;;;4982154;28;20060;-77
2022/05/24 12:47:27;;;;;;;1.25;0.80;;;;;;;;;;4989126;28;20054;-75
2022/05/24 12:49:55;;;;;;;1.63;0.82;;;;;;;;;;4981680;28;20052;-74
2022/05/24 12:52:27;;;;;;;1.88;0.70;;;;;;;;;;4989328;28;20050;-73
2022/05/24 12:54:54;;;;;;;1.52;0.80;;;;;;;;;;4982262;28;20046;-71
2022/05/24 12:57:23;;;;;;;1.30;0.90;;;;;;;;;;4988243;28;20137;-71
2022/05/24 12:59:49;;;;;;;;;;;;;;;;;;4980940;28;20049;-73
2022/05/24 13:02:28;;;;;;;4.35;0.90;;;;;;;;;;4989044;28;19926;-73
2022/05/24 13:04:55;;;;;;;1.63;0.90;;;;;;;;;;4973364;28;20140;-69
2022/05/24 13:07:30;;;;;;;1.83;0.77;;;;;;;;;;4988292;28;20058;-74
2022/05/24 13:09:57;;;;;;;5.25;2.05;;;;;;;;;;4977853;28;20121;-68
2022/05/24 13:12:24;;;;;;;7.60;2.05;;;;;;;;;;4986607;28;20045;-73
2022/05/24 13:14:56;;;;;;;3.88;1.27;;;;;;;;;;4994509;28;20058;-72
2022/05/24 13:17:25;;;;;;;2.78;1.02;;;;;;;;;;4987654;28;20053;-75
2022/05/24 13:19:57;;;;;;;2.20;1.00;;;;;;;;;;4987759;28;20065;-70
2022/05/24 13:22:26;;;;;;;2.03;0.98;;;;;;;;;;4994929;28;20057;-69
2022/05/24 13:24:52;;;;;;;;;;;;;;;;;;4990451;28;20054;-70
2022/05/24 13:27:22;;;;;;;4.70;0.85;;;;;;;;;;4977935;28;20008;-77
2022/05/24 13:35:25;;;;;;;2.42;0.70;;;;;;;;;;4989540;28;20068;-75
2022/05/24 13:37:53;;;;;;;1.77;0.73;;;;;;;;;;4980631;28;20054;-78
2022/05/24 13:40:20;;;;;;;6.40;0.90;;;;;;;;;;4987340;28;20061;-75
2022/05/24 13:42:54;;;;;;;3.67;0.88;;;;;;;;;;4981316;28;20064;-74
2022/05/24 13:45:21;;;;;;;2.80;0.70;;;;;;;;;;5003878;28;20049;-73
2022/05/24 13:47:53;;;;;;;1.53;0.70;;;;;;;;;;5001253;28;20041;-70
2022/05/24 13:50:22;;;;;;;1.42;0.60;;;;;;;;;;4978288;28;20148;-71
2022/05/24 13:52:53;;;;;;;3.20;0.80;;;;;;;;;;4985924;28;20053;-70
2022/05/24 13:55:22;;;;;;;1.30;0.80;;;;;;;;;;4990383;28;20058;-73
2022/05/24 13:57:54;;;;;;;2.22;0.80;;;;;;;;;;5003050;28;20056;-68
2022/05/24 14:00:25;;;;;;;2.40;0.80;;;;;;;;;;4975429;28;20061;-68
2022/05/24 14:03:07;;;;;;;2.22;0.98;;;;;;;;;;4986259;28;20080;-67
2022/05/24 14:05:35;;;;;;;1.70;0.70;;;;;;;;;;4977891;28;20054;-73
2022/05/24 14:08:02;;;;;;;4.95;0.90;;;;;;;;;;4987342;28;20061;-68
2022/05/24 14:10:29;;;;;;;1.40;0.80;;;;;;;;;;4984462;28;20108;-75
2022/05/24 14:12:56;;;;;;;4.47;1.02;;;;;;;;;;4982394;28;20098;-70
2022/05/24 14:15:23;;;;;;;2.25;0.68;;;;;;;;;;4986140;28;20050;-70
2022/05/24 14:17:50;;;;;;;1.75;0.70;;;;;;;;;;4995323;28;20084;-69
2022/05/24 14:20:19;;;;;;;2.08;0.77;;;;;;;;;;4979684;28;20051;-70
2022/05/24 14:22:46;;;;;;;2.38;0.80;;;;;;;;;;4977797;28;20137;-71
2022/05/24 14:25:19;;;;;;;1.75;0.70;;;;;;;;;;4984021;28;20145;-68
2022/05/24 14:27:46;;;;;;;2.60;0.80;;;;;;;;;;4978610;28;20145;-74
2022/05/24 14:30:16;;;;;;;2.35;0.80;;;;;;;;;;5000233;28;20121;-73
2022/05/24 14:32:43;;;;;;;1.80;0.88;;;;;;;;;;4978637;28;20046;-69
2022/05/24 14:35:11;;;;;;;1.92;0.88;;;;;;;;;;4967829;28;20058;-70
2022/05/24 14:37:39;;;;;;;1.42;0.60;;;;;;;;;;4959964;28;20055;-73
2022/05/24 14:40:06;;;;;;;0.90;0.63;;;;;;;;;;4998680;28;20054;-71
2022/05/24 14:42:34;;;;;;;1.17;0.80;;;;;;;;;;4962924;28;20137;-71
2022/05/24 14:45:04;;;;;;;4.90;0.70;;;;;;;;;;4968228;28;20050;-73
2022/05/24 14:47:31;;;;;;;2.25;0.70;;;;;;;;;;4985219;28;20527;-71
2022/05/24 14:49:57;;;;;;;4.65;0.68;;;;;;;;;;4980036;28;20051;-72
2022/05/24 14:52:26;;;;;;;1.13;0.77;;;;;;;;;;4970601;28;20089;-74
2022/05/24 14:54:54;;;;;;;0.82;0.60;;;;;;;;;;4966830;28;20061;-69
2022/05/24 14:57:21;;;;;;;1.75;0.45;;;;;;;;;;5004513;28;20054;-69
2022/05/24 14:59:51;;;;;;;0.55;0.50;;;;;;;;;;4966006;28;20087;-68
2022/05/24 15:02:18;;;;;;;4.65;0.50;;;;;;;;;;5003785;28;20113;-71
2022/05/24 15:04:44;;;;;;;1.15;0.50;;;;;;;;;;4955680;28;20069;-68
2022/05/24 15:15:28;;;;;;;2.25;0.60;;;;;;;;;;4992851;28;20054;-70
2022/05/24 15:17:55;;;;;;;1.20;0.60;;;;;;;;;;4962577;28;20071;-68
2022/05/24 15:20:22;;;;;;;4.35;0.70;;;;;;;;;;4988263;28;20054;-69
2022/05/24 15:22:51;;;;;;;1.80;0.85;;;;;;;;;;4970385;28;20159;-70
2022/05/24 15:25:21;;;;;;;0.80;0.50;;;;;;;;;;4969487;28;20061;-68
2022/05/24 15:27:48;;;;;;;0.82;0.70;;;;;;;;;;4984260;28;20086;-68
2022/05/24 15:30:15;;;;;;;0.60;0.60;;;;;;;;;;4987608;28;20089;-69
2022/05/24 15:32:42;;;;;;;0.75;0.52;;;;;;;;;;4961893;28;20054;-67
2022/05/24 15:35:09;;;;;;;2.22;0.90;;;;;;;;;;4972444;28;20050;-68
2022/05/24 15:37:36;;;;;;;0.93;0.50;;;;;;;;;;4957380;28;20050;-67
2022/05/24 15:40:04;;;;;;;6.28;0.55;;;;;;;;;;4969329;28;20142;-66
2022/05/24 15:42:33;;;;;;;1.90;0.47;;;;;;;;;;4964395;28;20165;-66